Time;durP1;ratioP1;P1;durP2;ratioP2;P2;SDS_P1;SDS_P2;PMS_P1;PMS_P2;Temp;Humidity;BMP_temperature;BMP_pressure;BME280_temperature;BME280_humidity;BME280_pressure;Samples;Min_cycle;Max_cycle;Signal;HPM_P1;HPM_P2
2021/01/18 07:33:03;;;;;;;19.45;10.20;;;7.50;99.90;;;;;;6065247;22;20228;-75
2021/01/18 14:15:28;;;;;;;3.92;1.50;;;10.50;99.90;;;;;;6208897;23;20169;-81
2021/01/18 14:17:54;;;;;;;6.95;1.70;;;10.60;99.90;;;;;;6181723;23;20145;-81
2021/01/18 14:20:23;;;;;;;6.53;1.52;;;10.60;99.90;;;;;;6203315;23;20186;-83
2021/01/18 14:22:49;;;;;;;6.68;1.75;;;10.70;99.90;;;;;;6121044;23;20635;-81
2021/01/18 14:25:15;;;;;;;7.43;2.13;;;10.70;99.90;;;;;;6109290;23;20150;-82
2021/01/18 14:27:42;;;;;;;7.07;2.08;;;10.70;99.90;;;;;;6158170;23;20695;-81
2021/01/18 14:30:08;;;;;;;4.68;1.33;;;10.60;99.90;;;;;;6159311;23;20143;-81
2021/01/18 14:32:38;;;;;;;6.55;1.60;;;10.60;99.90;;;;;;6135614;23;20143;-82
2021/01/18 14:35:07;;;;;;;5.28;1.50;;;10.60;99.90;;;;;;6109747;23;20241;-80
2021/01/18 14:37:35;;;;;;;5.22;2.00;;;10.60;99.90;;;;;;6106333;23;20155;-80
2021/01/18 14:40:06;;;;;;;3.58;1.90;;;10.60;99.90;;;;;;6134443;23;20191;-80
2021/01/18 14:42:36;;;;;;;9.15;2.13;;;10.60;99.90;;;;;;6131064;23;20193;-81
2021/01/18 14:45:02;;;;;;;7.97;1.83;;;10.60;99.90;;;;;;6133363;23;20666;-81
2021/01/18 14:47:28;;;;;;;8.90;2.05;;;10.60;99.90;;;;;;6087558;23;20186;-80
2021/01/18 14:49:55;;;;;;;5.05;2.00;;;10.60;99.90;;;;;;6133538;23;20527;-81
2021/01/18 14:52:20;;;;;;;4.63;1.80;;;10.60;99.90;;;;;;6104881;23;20167;-82
2021/01/18 14:54:49;;;;;;;5.47;1.40;;;10.50;99.90;;;;;;6105455;23;20546;-81
2021/01/18 14:57:16;;;;;;;5.63;1.73;;;10.50;99.90;;;;;;6133963;23;20147;-82
2021/01/18 14:59:48;;;;;;;5.93;1.95;;;10.50;99.90;;;;;;6165278;23;20143;-80
2021/01/18 15:02:19;;;;;;;4.93;2.30;;;10.50;99.90;;;;;;6158695;23;20661;-81
2021/01/18 15:04:49;;;;;;;4.30;1.55;;;10.50;99.90;;;;;;6161148;23;20147;-81
2021/01/18 15:07:15;;;;;;;5.85;2.25;;;10.50;99.90;;;;;;6136804;23;20182;-81
2021/01/18 15:09:43;;;;;;;6.60;1.70;;;10.50;99.90;;;;;;6159105;23;20177;-80
2021/01/18 15:12:22;;;;;;;7.75;1.70;;;10.50;99.90;;;;;;6106980;23;20205;-82
2021/01/18 15:15:01;;;;;;;;;;;;;;;;;;;;;
2021/01/18 15:17:31;;;;;;;6.07;1.63;;;10.40;99.90;;;;;;6037267;23;20153;-82
2021/01/18 15:20:06;;;;;;;7.78;1.90;;;10.30;99.90;;;;;;6010874;23;20146;-83
2021/01/18 15:22:37;;;;;;;7.18;3.15;;;10.20;99.90;;;;;;6012548;23;20573;-82
2021/01/18 15:25:04;;;;;;;5.22;3.00;;;10.20;99.90;;;;;;6005477;23;20158;-82
2021/01/18 15:27:42;;;;;;;7.57;2.50;;;10.10;99.90;;;;;;5983748;23;20217;-81
2021/01/18 15:30:13;;;;;;;7.97;3.53;;;10.10;99.90;;;;;;5978982;23;20168;-81
2021/01/18 15:32:44;;;;;;;7.97;3.65;;;10.10;99.90;;;;;;5978918;23;20142;-80
2021/01/18 15:35:25;;;;;;;12.07;2.47;;;10.10;99.90;;;;;;6003536;23;20161;-80
2021/01/18 15:38:01;;;;;;;7.70;2.70;;;10.10;99.90;;;;;;5979513;23;20146;-81
2021/01/18 15:40:30;;;;;;;5.13;2.05;;;10.20;99.90;;;;;;5955767;23;20769;-81
2021/01/18 15:43:19;;;;;;;6.28;2.70;;;10.20;99.90;;;;;;5989763;23;20208;-80
2021/01/18 15:45:59;;;;;;;4.43;3.45;;;10.30;99.90;;;;;;5980131;23;20189;-81
2021/01/18 15:48:46;;;;;;;5.80;2.53;;;10.30;99.90;;;;;;5960831;23;20150;-80
2021/01/18 15:51:25;;;;;;;5.55;2.20;;;10.20;99.90;;;;;;5982703;23;20173;-80
2021/01/18 15:54:22;;;;;;;4.43;2.45;;;10.20;99.90;;;;;;5964032;23;20149;-80
2021/01/18 15:57:03;;;;;;;5.70;2.80;;;10.10;99.90;;;;;;5987286;23;20225;-80
2021/01/18 15:59:38;;;;;;;3.15;1.90;;;10.00;99.90;;;;;;6001734;23;20157;-81
2021/01/18 16:02:18;;;;;;;4.28;2.00;;;10.00;99.90;;;;;;6001933;23;20174;-81
2021/01/18 16:04:44;;;;;;;11.43;3.08;;;9.90;99.90;;;;;;6027915;23;20150;-81
2021/01/18 16:07:29;;;;;;;5.57;1.50;;;9.90;99.90;;;;;;6025650;23;20177;-82
2021/01/18 16:10:19;;;;;;;8.32;2.60;;;9.80;99.90;;;;;;5980127;23;20161;-81
2021/01/18 16:13:06;;;;;;;4.28;1.92;;;9.80;99.90;;;;;;6003337;23;20138;-80
2021/01/18 16:15:38;;;;;;;4.35;2.08;;;9.70;99.90;;;;;;6023893;23;20150;-81
2021/01/18 16:18:14;;;;;;;7.13;2.40;;;9.60;99.90;;;;;;6001925;23;20150;-80
2021/01/18 16:20:53;;;;;;;7.90;2.63;;;9.60;99.90;;;;;;5998900;23;20241;-80
2021/01/18 16:25:51;;;;;;;6.75;2.90;;;9.50;99.90;;;;;;6010524;23;20572;-78
2021/01/18 16:28:19;;;;;;;7.30;3.33;;;9.50;99.90;;;;;;6029376;23;20145;-79
2021/01/18 16:30:45;;;;;;;8.18;2.85;;;9.50;99.90;;;;;;6029303;23;20553;-79
2021/01/18 16:33:11;;;;;;;5.07;2.43;;;9.40;99.90;;;;;;6040246;23;20141;-78
2021/01/18 16:35:37;;;;;;;4.73;2.53;;;9.40;99.90;;;;;;6030187;23;20592;-79
2021/01/18 16:38:04;;;;;;;4.93;2.45;;;9.40;99.90;;;;;;6031287;23;20152;-79
2021/01/18 16:40:31;;;;;;;6.72;3.60;;;9.40;99.90;;;;;;6029852;23;20164;-79
2021/01/18 16:43:04;;;;;;;6.93;3.67;;;9.40;99.90;;;;;;6030216;23;20626;-79
2021/01/18 16:45:33;;;;;;;8.70;5.03;;;9.40;99.90;;;;;;6029881;23;20220;-79
2021/01/18 16:48:00;;;;;;;11.25;5.25;;;9.40;99.90;;;;;;6034585;23;20159;-79
2021/01/18 16:50:27;;;;;;;6.82;4.35;;;9.40;99.90;;;;;;6029923;23;20153;-79
2021/01/18 16:52:53;;;;;;;6.90;3.72;;;9.40;99.90;;;;;;6029953;23;20164;-80
2021/01/18 16:55:21;;;;;;;6.00;2.80;;;9.40;99.90;;;;;;6030294;23;20238;-79
2021/01/18 16:57:47;;;;;;;11.30;3.72;;;9.30;99.90;;;;;;6030707;23;20164;-79
2021/01/18 17:00:15;;;;;;;7.97;3.27;;;9.30;99.90;;;;;;6029175;23;20157;-79
2021/01/18 17:02:41;;;;;;;11.07;3.65;;;9.30;99.90;;;;;;6006629;23;20472;-79
2021/01/18 17:05:10;;;;;;;6.32;3.08;;;9.30;99.90;;;;;;6031423;23;20173;-79
2021/01/18 17:07:37;;;;;;;9.48;4.07;;;9.20;99.90;;;;;;6030684;23;20268;-79
2021/01/18 17:10:09;;;;;;;5.80;2.35;;;9.20;99.90;;;;;;6031197;23;20153;-79
2021/01/18 17:12:35;;;;;;;9.27;3.90;;;9.20;99.90;;;;;;6031515;23;20141;-79
2021/01/18 17:15:05;;;;;;;10.43;4.22;;;9.20;99.90;;;;;;6030802;23;20189;-79
2021/01/18 17:17:31;;;;;;;8.45;4.65;;;9.20;99.90;;;;;;6029095;23;20156;-79
2021/01/18 17:19:57;;;;;;;8.07;3.40;;;9.10;99.90;;;;;;6031038;23;20225;-79
2021/01/18 17:22:26;;;;;;;6.10;3.13;;;9.10;99.90;;;;;;6029439;23;20264;-79
2021/01/18 17:24:52;;;;;;;3.13;2.25;;;9.10;99.90;;;;;;6051462;23;20184;-79
2021/01/18 17:27:18;;;;;;;4.60;1.90;;;9.10;99.90;;;;;;6183407;23;20165;-79
2021/01/18 17:29:44;;;;;;;2.23;1.70;;;9.10;99.90;;;;;;6210008;23;20850;-79
2021/01/18 17:32:11;;;;;;;4.55;2.15;;;9.00;99.90;;;;;;6183759;23;20643;-79
2021/01/18 17:34:40;;;;;;;4.75;2.25;;;9.10;99.90;;;;;;6210628;23;20474;-79
2021/01/18 17:37:07;;;;;;;5.32;2.15;;;9.10;99.90;;;;;;6184676;23;20215;-79
2021/01/18 17:39:33;;;;;;;5.43;2.30;;;9.10;99.90;;;;;;6184223;23;20512;-79
2021/01/18 17:42:00;;;;;;;4.33;1.83;;;9.10;99.90;;;;;;6210889;23;20160;-79
2021/01/18 17:44:27;;;;;;;8.50;2.20;;;9.10;99.90;;;;;;6134544;23;20580;-80
2021/01/18 17:46:54;;;;;;;4.70;2.25;;;9.10;99.90;;;;;;6159794;23;20184;-80
2021/01/18 17:49:20;;;;;;;4.80;2.25;;;9.10;99.90;;;;;;6210370;23;20595;-80
2021/01/18 17:51:46;;;;;;;5.73;1.97;;;9.00;99.90;;;;;;6210998;23;20184;-80
2021/01/18 17:54:14;;;;;;;5.50;2.60;;;9.00;99.90;;;;;;6209009;23;20583;-79
2021/01/18 17:56:40;;;;;;;3.42;2.05;;;9.10;99.90;;;;;;6184981;23;20539;-80
2021/01/18 17:59:06;;;;;;;3.40;1.60;;;9.00;99.90;;;;;;6208501;23;20666;-79
2021/01/18 18:01:33;;;;;;;7.10;2.93;;;9.00;99.90;;;;;;6215777;23;20563;-79
2021/01/18 18:03:59;;;;;;;5.22;3.10;;;9.00;99.90;;;;;;6210752;23;20564;-80
2021/01/18 18:06:27;;;;;;;6.38;2.38;;;9.00;99.90;;;;;;6184199;23;20184;-80
2021/01/18 18:08:54;;;;;;;5.82;3.03;;;9.00;99.90;;;;;;6183286;23;20253;-80
2021/01/18 18:11:20;;;;;;;5.65;2.38;;;9.00;99.90;;;;;;6211814;23;20350;-80
2021/01/18 18:13:47;;;;;;;4.32;2.30;;;9.00;99.90;;;;;;6211322;23;20200;-80
2021/01/18 18:16:20;;;;;;;3.30;1.90;;;9.00;99.90;;;;;;6211494;23;20150;-79
2021/01/18 18:18:48;;;;;;;4.05;2.65;;;9.00;99.90;;;;;;6211067;23;20518;-80
2021/01/18 18:21:28;;;;;;;8.73;4.25;;;9.00;99.90;;;;;;6211496;23;20130;-80
2021/01/18 18:23:55;;;;;;;3.72;3.33;;;8.90;99.90;;;;;;6210531;23;20164;-80
2021/01/18 18:26:32;;;;;;;4.82;3.22;;;9.00;99.90;;;;;;6210046;23;20655;-80
2021/01/18 18:28:58;;;;;;;7.18;2.83;;;8.90;99.90;;;;;;6211396;23;20470;-79
2021/01/18 18:31:40;;;;;;;5.63;2.88;;;8.90;99.90;;;;;;6213878;23;20481;-79
2021/01/18 18:51:54;;;;;;;5.53;2.80;;;8.80;99.90;;;;;;6179196;23;20674;-79
2021/01/18 18:54:22;;;;;;;4.80;3.15;;;8.80;99.90;;;;;;6182298;23;20193;-78
2021/01/18 18:56:50;;;;;;;4.60;2.88;;;8.80;99.90;;;;;;6182040;23;20240;-79
2021/01/18 18:59:17;;;;;;;6.18;2.75;;;8.80;99.90;;;;;;6182080;23;20152;-79
2021/01/18 19:02:06;;;;;;;3.88;2.30;;;8.90;99.90;;;;;;6156476;23;20150;-79
2021/01/18 19:04:33;;;;;;;3.90;2.72;;;8.90;99.90;;;;;;6155790;23;20176;-79
2021/01/18 19:07:05;;;;;;;4.70;2.72;;;8.90;99.90;;;;;;6182295;23;20241;-79
2021/01/18 19:09:32;;;;;;;5.07;3.60;;;8.90;99.90;;;;;;6180803;23;20625;-81
2021/01/18 19:12:06;;;;;;;7.88;3.72;;;8.90;99.90;;;;;;6182476;23;20224;-79
2021/01/18 19:14:32;;;;;;;4.95;3.65;;;8.90;99.90;;;;;;6186348;23;20189;-80
2021/01/18 19:16:58;;;;;;;4.20;3.63;;;9.00;99.90;;;;;;6182429;23;20158;-79
2021/01/18 19:19:25;;;;;;;5.72;3.10;;;9.00;99.90;;;;;;6155040;23;20600;-79
2021/01/18 19:21:51;;;;;;;6.75;4.40;;;9.00;99.90;;;;;;6182076;23;20142;-79
2021/01/18 19:24:18;;;;;;;15.18;6.80;;;9.00;99.90;;;;;;6155958;23;20197;-78
2021/01/18 19:26:44;;;;;;;10.77;7.38;;;9.00;99.90;;;;;;6181871;23;20658;-79
2021/01/18 19:29:13;;;;;;;10.55;5.53;;;9.00;99.90;;;;;;6179658;23;20233;-79
2021/01/18 19:31:39;;;;;;;5.60;4.68;;;9.00;99.90;;;;;;6180231;23;20193;-79
2021/01/18 19:34:07;;;;;;;6.72;3.75;;;9.10;99.90;;;;;;6129191;23;20554;-79
2021/01/18 19:36:36;;;;;;;6.40;3.47;;;9.00;99.90;;;;;;6153957;23;20260;-79
2021/01/18 19:39:07;;;;;;;3.90;3.28;;;9.00;99.90;;;;;;6129701;23;20161;-79
2021/01/18 19:41:33;;;;;;;8.55;4.65;;;9.00;99.90;;;;;;6181064;23;20130;-79
2021/01/18 19:44:03;;;;;;;4.75;4.05;;;9.00;99.90;;;;;;6155404;23;20166;-79
2021/01/18 19:46:35;;;;;;;4.55;3.75;;;9.00;99.90;;;;;;6155702;23;20264;-79
2021/01/18 19:49:01;;;;;;;6.35;3.28;;;9.00;99.90;;;;;;6155252;23;20161;-79
2021/01/18 19:51:28;;;;;;;3.95;3.15;;;9.00;99.90;;;;;;6186775;23;20161;-79
2021/01/18 19:53:56;;;;;;;6.95;4.15;;;9.00;99.90;;;;;;6130479;23;20158;-79
2021/01/18 19:56:23;;;;;;;5.22;4.43;;;9.00;99.90;;;;;;6182083;23;20154;-79
2021/01/18 19:58:52;;;;;;;6.03;3.28;;;9.00;99.90;;;;;;6181961;23;20157;-79
2021/01/18 20:01:31;;;;;;;5.72;3.97;;;9.00;99.90;;;;;;6181508;23;20429;-80
2021/01/18 20:04:03;;;;;;;4.80;4.05;;;9.00;99.90;;;;;;6156673;23;20193;-81
2021/01/18 20:06:35;;;;;;;2.80;2.38;;;9.00;99.90;;;;;;6156162;23;20297;-81
2021/01/18 20:09:01;;;;;;;5.93;2.55;;;9.00;99.90;;;;;;6154693;23;20134;-80
2021/01/18 20:11:32;;;;;;;6.32;3.67;;;8.90;99.90;;;;;;6181681;23;20153;-80
2021/01/18 20:14:01;;;;;;;4.10;3.20;;;8.90;99.90;;;;;;6182203;23;20292;-80
2021/01/18 20:16:34;;;;;;;5.40;3.38;;;8.90;99.90;;;;;;6130906;23;20242;-81
2021/01/18 20:18:59;;;;;;;5.28;3.63;;;8.90;99.90;;;;;;6155451;23;20576;-80
2021/01/18 20:21:27;;;;;;;5.50;3.90;;;8.80;99.90;;;;;;6106323;23;20209;-81
2021/01/18 20:23:55;;;;;;;4.63;3.88;;;8.80;99.90;;;;;;6181624;23;20178;-80
2021/01/18 20:26:28;;;;;;;6.18;3.60;;;8.80;99.90;;;;;;6156085;23;20658;-79
2021/01/18 20:29:01;;;;;;;7.03;3.97;;;8.80;99.90;;;;;;6161327;23;20146;-79
2021/01/18 20:31:31;;;;;;;4.32;3.45;;;8.80;99.90;;;;;;6131741;23;20150;-79
2021/01/18 20:34:00;;;;;;;5.90;3.92;;;8.80;99.90;;;;;;6132009;23;20197;-79
2021/01/18 20:36:40;;;;;;;8.50;4.45;;;8.70;99.90;;;;;;6181805;23;20138;-80
2021/01/18 20:39:09;;;;;;;5.68;4.05;;;8.70;99.90;;;;;;6155190;23;20500;-79
2021/01/18 20:41:41;;;;;;;4.10;3.70;;;8.70;99.90;;;;;;6130404;23;20146;-80
2021/01/18 20:44:08;;;;;;;5.53;4.72;;;8.70;99.90;;;;;;6156777;23;20236;-79
2021/01/18 20:46:44;;;;;;;4.82;3.53;;;8.60;99.90;;;;;;6184584;23;20255;-79
2021/01/18 20:49:11;;;;;;;3.55;3.25;;;8.60;99.90;;;;;;6158077;23;20152;-79
2021/01/18 20:51:47;;;;;;;4.03;2.78;;;8.60;99.90;;;;;;6049758;23;20161;-79
2021/01/18 20:54:13;;;;;;;3.25;2.88;;;8.70;99.90;;;;;;6011036;23;20540;-79
2021/01/18 20:56:41;;;;;;;4.30;3.35;;;8.60;99.90;;;;;;6037484;23;20156;-77
2021/01/18 20:59:07;;;;;;;3.10;2.38;;;8.60;99.90;;;;;;6037167;23;20138;-79
2021/01/18 21:01:36;;;;;;;2.40;1.80;;;8.70;99.90;;;;;;6031590;23;20156;-79
2021/01/18 21:04:03;;;;;;;3.45;2.10;;;8.70;99.90;;;;;;6033111;23;20657;-78
2021/01/18 21:06:32;;;;;;;4.10;1.98;;;8.70;99.90;;;;;;6036922;23;20184;-79
2021/01/18 21:08:57;;;;;;;1.90;1.60;;;8.60;99.90;;;;;;6008885;23;20146;-79
2021/01/18 21:11:24;;;;;;;3.33;1.70;;;8.70;99.90;;;;;;6030924;23;20153;-78
2021/01/18 21:13:49;;;;;;;2.33;1.90;;;8.70;99.90;;;;;;6031365;23;20554;-80
2021/01/18 21:16:22;;;;;;;1.90;1.57;;;8.70;99.90;;;;;;6030726;23;20161;-79
2021/01/18 21:18:50;;;;;;;3.50;1.60;;;8.70;99.90;;;;;;6029585;23;20918;-80
2021/01/18 21:21:23;;;;;;;2.22;1.67;;;8.70;99.90;;;;;;6030407;23;20172;-79
2021/01/18 21:23:49;;;;;;;2.05;1.40;;;8.70;99.90;;;;;;6031698;23;20176;-79
2021/01/18 21:26:16;;;;;;;2.60;1.75;;;8.70;99.90;;;;;;6006933;23;20304;-79
2021/01/18 21:28:42;;;;;;;2.40;1.40;;;8.70;99.90;;;;;;5982789;23;20168;-80
2021/01/18 21:31:12;;;;;;;7.97;1.85;;;8.70;99.90;;;;;;5982960;23;20240;-79
2021/01/18 21:33:38;;;;;;;1.30;1.20;;;8.70;99.90;;;;;;6006432;23;20173;-80
2021/01/18 21:36:04;;;;;;;2.67;1.40;;;8.70;99.90;;;;;;6029506;23;20149;-80
2021/01/18 21:38:30;;;;;;;1.83;1.38;;;8.70;99.90;;;;;;6030560;23;20568;-80
2021/01/18 21:40:56;;;;;;;2.20;1.33;;;8.70;99.90;;;;;;6031061;23;20150;-80
2021/01/18 21:43:22;;;;;;;2.08;1.65;;;8.70;99.90;;;;;;6033065;23;20557;-80
2021/01/18 21:45:48;;;;;;;1.77;1.47;;;8.70;99.90;;;;;;6029544;23;20153;-80
2021/01/18 21:48:16;;;;;;;2.03;1.73;;;8.70;99.90;;;;;;6030559;23;20220;-80
2021/01/18 21:50:42;;;;;;;3.40;1.65;;;8.70;99.90;;;;;;6004922;23;21019;-80
2021/01/18 21:53:08;;;;;;;2.37;1.23;;;8.80;99.90;;;;;;6029636;23;20152;-80
2021/01/18 21:55:34;;;;;;;2.00;1.50;;;8.70;99.90;;;;;;6029698;23;20165;-80
2021/01/18 21:57:59;;;;;;;2.53;1.20;;;8.70;99.90;;;;;;6030518;23;20142;-80
2021/01/18 22:00:26;;;;;;;4.67;1.90;;;8.70;99.90;;;;;;6029470;23;20697;-80
2021/01/18 22:02:52;;;;;;;2.20;1.67;;;8.70;99.90;;;;;;6029763;23;20606;-80
2021/01/18 22:05:17;;;;;;;2.27;1.53;;;8.70;99.90;;;;;;6030365;23;20169;-80
2021/01/18 22:07:43;;;;;;;3.00;1.57;;;8.70;99.90;;;;;;6031317;23;20187;-78
2021/01/18 22:10:09;;;;;;;1.90;1.40;;;8.60;99.90;;;;;;6030843;23;20228;-78
2021/01/18 22:12:36;;;;;;;4.18;2.42;;;8.60;99.90;;;;;;6006690;23;20669;-77
2021/01/18 22:15:02;;;;;;;3.40;1.73;;;8.50;99.90;;;;;;6032851;23;20179;-78
2021/01/18 22:17:32;;;;;;;2.60;1.75;;;8.50;99.90;;;;;;6030585;23;20164;-78
2021/01/18 22:19:58;;;;;;;3.05;2.03;;;8.50;99.90;;;;;;6039955;23;20232;-79
2021/01/18 22:22:23;;;;;;;3.00;1.30;;;8.50;99.90;;;;;;5983654;23;20197;-79
2021/01/18 22:24:49;;;;;;;3.90;1.63;;;8.50;99.90;;;;;;6032542;23;20200;-79
2021/01/18 22:27:15;;;;;;;2.80;1.10;;;8.40;99.90;;;;;;6032010;23;20189;-79
2021/01/18 22:29:40;;;;;;;3.30;2.10;;;8.40;99.90;;;;;;6032542;23;20662;-79
2021/01/18 22:32:06;;;;;;;3.23;1.93;;;8.40;99.90;;;;;;6032194;23;20145;-80
2021/01/18 22:34:33;;;;;;;4.23;2.90;;;8.30;99.90;;;;;;6031990;23;20173;-79
2021/01/18 22:37:00;;;;;;;2.50;2.30;;;8.30;99.90;;;;;;6030963;23;20153;-79
2021/01/18 22:39:28;;;;;;;2.65;2.40;;;8.30;99.90;;;;;;6006598;23;20616;-79
2021/01/18 22:41:54;;;;;;;4.40;3.03;;;8.30;99.90;;;;;;6032167;23;20470;-79
2021/01/18 22:44:20;;;;;;;4.07;2.38;;;8.30;99.90;;;;;;6032269;23;20171;-80
2021/01/18 22:46:51;;;;;;;2.45;2.25;;;8.30;99.90;;;;;;6031310;23;20176;-79
2021/01/18 22:49:17;;;;;;;4.18;2.33;;;8.30;99.90;;;;;;6032144;23;20149;-79
2021/01/18 22:51:49;;;;;;;1.83;1.50;;;8.20;99.90;;;;;;6158482;23;20240;-79
2021/01/18 22:54:16;;;;;;;2.00;1.80;;;8.30;99.90;;;;;;6156797;23;20557;-79
2021/01/18 22:56:41;;;;;;;4.00;1.80;;;8.30;99.90;;;;;;6159536;23;20818;-79
2021/01/18 22:59:07;;;;;;;1.60;1.50;;;8.20;99.90;;;;;;6182414;23;20196;-79
2021/01/18 23:01:33;;;;;;;2.77;1.40;;;8.20;99.90;;;;;;6155694;23;20150;-79
2021/01/18 23:04:00;;;;;;;2.60;1.10;;;8.20;99.90;;;;;;6156388;23;20169;-79
2021/01/18 23:06:28;;;;;;;2.47;1.48;;;8.20;99.90;;;;;;6182468;23;20698;-79
2021/01/18 23:08:56;;;;;;;3.40;2.00;;;8.20;99.90;;;;;;6131293;23;20145;-78
2021/01/18 23:11:23;;;;;;;1.80;1.30;;;8.20;99.90;;;;;;6182342;23;20200;-78
2021/01/18 23:13:49;;;;;;;2.75;1.20;;;8.20;99.90;;;;;;6156315;23;20166;-79
2021/01/18 23:16:14;;;;;;;2.57;1.70;;;8.20;99.90;;;;;;6182093;23;20284;-78
2021/01/18 23:18:41;;;;;;;2.53;1.50;;;8.20;99.90;;;;;;6181911;23;20858;-79
2021/01/18 23:21:08;;;;;;;1.70;1.02;;;8.20;99.90;;;;;;6182507;23;20211;-79
2021/01/18 23:23:36;;;;;;;3.15;1.15;;;8.20;99.90;;;;;;6182774;23;20170;-79
2021/01/18 23:26:03;;;;;;;2.75;1.48;;;8.30;99.90;;;;;;6155846;23;20174;-79
2021/01/18 23:28:29;;;;;;;2.28;1.52;;;8.30;99.90;;;;;;6181566;23;20212;-78
2021/01/18 23:30:54;;;;;;;4.57;1.40;;;8.30;99.90;;;;;;6181471;23;20142;-79
2021/01/18 23:33:20;;;;;;;3.07;1.60;;;8.30;99.90;;;;;;6166500;23;20161;-78
2021/01/18 23:35:46;;;;;;;2.20;2.00;;;8.30;99.90;;;;;;6157038;23;20153;-79
2021/01/18 23:38:12;;;;;;;2.33;1.67;;;8.30;99.90;;;;;;6182077;23;20204;-78
2021/01/18 23:40:38;;;;;;;2.20;1.27;;;8.30;99.90;;;;;;6182390;23;20513;-79
2021/01/18 23:43:04;;;;;;;2.85;1.73;;;8.40;99.90;;;;;;6183194;23;20510;-78
2021/01/18 23:45:30;;;;;;;3.03;1.80;;;8.40;99.90;;;;;;6181876;23;20619;-78
2021/01/18 23:47:56;;;;;;;2.85;1.80;;;8.40;99.90;;;;;;6154891;23;20232;-79
2021/01/18 23:50:22;;;;;;;3.33;2.43;;;8.40;99.90;;;;;;6181315;23;20162;-78
2021/01/18 23:52:49;;;;;;;2.80;1.50;;;8.40;99.90;;;;;;6132031;23;20154;-78
2021/01/18 23:55:15;;;;;;;3.83;1.95;;;8.40;99.90;;;;;;6182562;23;20223;-78
2021/01/18 23:57:41;;;;;;;3.30;2.53;;;8.40;99.90;;;;;;6155561;23;20240;-78
